sensor_id;sensor_type;location;lat;lon;timestamp;P1;durP1;ratioP1;P2;durP2;ratioP2
7104;SDS011;3594;42.152;24.714;2023-04-24T00:01:14;11.77;;;4.80;;
7104;SDS011;3594;42.152;24.714;2023-04-24T00:03:40;9.43;;;5.10;;
7104;SDS011;3594;42.152;24.714;2023-04-24T00:06:06;9.80;;;5.57;;
7104;SDS011;3594;42.152;24.714;2023-04-24T00:08:33;7.50;;;5.07;;
7104;SDS011;3594;42.152;24.714;2023-04-24T00:10:59;6.47;;;4.60;;
7104;SDS011;3594;42.152;24.714;2023-04-24T00:13:25;9.37;;;5.33;;
7104;SDS011;3594;42.152;24.714;2023-04-24T00:15:50;9.50;;;5.20;;
7104;SDS011;3594;42.152;24.714;2023-04-24T00:18:15;10.43;;;5.23;;
7104;SDS011;3594;42.152;24.714;2023-04-24T00:20:41;10.73;;;6.13;;
7104;SDS011;3594;42.152;24.714;2023-04-24T00:23:08;10.03;;;5.80;;
7104;SDS011;3594;42.152;24.714;2023-04-24T00:25:34;9.07;;;5.57;;
7104;SDS011;3594;42.152;24.714;2023-04-24T00:27:59;7.60;;;5.13;;
7104;SDS011;3594;42.152;24.714;2023-04-24T00:30:25;10.07;;;5.60;;
7104;SDS011;3594;42.152;24.714;2023-04-24T00:32:51;8.13;;;5.10;;
7104;SDS011;3594;42.152;24.714;2023-04-24T00:35:16;7.70;;;5.60;;
7104;SDS011;3594;42.152;24.714;2023-04-24T00:37:42;8.50;;;5.53;;
7104;SDS011;3594;42.152;24.714;2023-04-24T00:40:07;10.40;;;5.37;;
7104;SDS011;3594;42.152;24.714;2023-04-24T00:42:33;7.93;;;5.40;;
7104;SDS011;3594;42.152;24.714;2023-04-24T00:44:59;10.63;;;5.60;;
7104;SDS011;3594;42.152;24.714;2023-04-24T00:47:25;8.57;;;5.50;;
7104;SDS011;3594;42.152;24.714;2023-04-24T00:49:52;8.47;;;5.30;;
7104;SDS011;3594;42.152;24.714;2023-04-24T00:52:17;9.63;;;5.33;;
7104;SDS011;3594;42.152;24.714;2023-04-24T00:54:43;8.67;;;5.50;;
7104;SDS011;3594;42.152;24.714;2023-04-24T00:57:12;8.33;;;5.30;;
7104;SDS011;3594;42.152;24.714;2023-04-24T00:59:42;10.77;;;6.07;;
7104;SDS011;3594;42.152;24.714;2023-04-24T01:02:08;10.67;;;5.50;;
7104;SDS011;3594;42.152;24.714;2023-04-24T01:04:36;8.93;;;5.80;;
7104;SDS011;3594;42.152;24.714;2023-04-24T01:07:02;9.03;;;5.10;;
7104;SDS011;3594;42.152;24.714;2023-04-24T01:09:27;9.70;;;5.80;;
7104;SDS011;3594;42.152;24.714;2023-04-24T01:11:53;11.10;;;5.97;;
7104;SDS011;3594;42.152;24.714;2023-04-24T01:14:19;10.03;;;6.03;;
7104;SDS011;3594;42.152;24.714;2023-04-24T01:16:45;8.60;;;5.23;;
7104;SDS011;3594;42.152;24.714;2023-04-24T01:19:11;9.23;;;5.40;;
7104;SDS011;3594;42.152;24.714;2023-04-24T01:21:37;7.83;;;5.10;;
7104;SDS011;3594;42.152;24.714;2023-04-24T01:24:04;9.97;;;5.50;;
7104;SDS011;3594;42.152;24.714;2023-04-24T01:26:30;11.57;;;6.10;;
7104;SDS011;3594;42.152;24.714;2023-04-24T01:28:56;10.80;;;6.20;;
7104;SDS011;3594;42.152;24.714;2023-04-24T01:31:22;8.97;;;5.37;;
7104;SDS011;3594;42.152;24.714;2023-04-24T01:33:48;16.70;;;5.93;;
7104;SDS011;3594;42.152;24.714;2023-04-24T01:36:14;11.37;;;6.00;;
7104;SDS011;3594;42.152;24.714;2023-04-24T01:38:41;10.13;;;6.20;;
7104;SDS011;3594;42.152;24.714;2023-04-24T01:41:06;13.03;;;6.60;;
7104;SDS011;3594;42.152;24.714;2023-04-24T01:43:32;11.00;;;5.93;;
7104;SDS011;3594;42.152;24.714;2023-04-24T01:45:57;12.27;;;5.83;;
7104;SDS011;3594;42.152;24.714;2023-04-24T01:48:23;9.60;;;5.77;;
7104;SDS011;3594;42.152;24.714;2023-04-24T01:50:48;13.83;;;6.23;;
7104;SDS011;3594;42.152;24.714;2023-04-24T01:53:14;9.50;;;5.43;;
7104;SDS011;3594;42.152;24.714;2023-04-24T01:55:40;10.20;;;5.97;;
7104;SDS011;3594;42.152;24.714;2023-04-24T01:58:06;9.20;;;5.33;;
7104;SDS011;3594;42.152;24.714;2023-04-24T02:00:32;11.40;;;4.83;;
7104;SDS011;3594;42.152;24.714;2023-04-24T02:02:57;12.80;;;5.97;;
7104;SDS011;3594;42.152;24.714;2023-04-24T02:05:22;10.93;;;5.77;;
7104;SDS011;3594;42.152;24.714;2023-04-24T02:07:48;13.00;;;5.57;;
7104;SDS011;3594;42.152;24.714;2023-04-24T02:10:13;8.97;;;5.53;;
7104;SDS011;3594;42.152;24.714;2023-04-24T02:12:39;10.13;;;5.67;;
7104;SDS011;3594;42.152;24.714;2023-04-24T02:15:04;8.93;;;5.60;;
7104;SDS011;3594;42.152;24.714;2023-04-24T02:17:30;12.13;;;5.80;;
7104;SDS011;3594;42.152;24.714;2023-04-24T02:19:55;8.37;;;5.27;;
7104;SDS011;3594;42.152;24.714;2023-04-24T02:22:21;8.00;;;4.47;;
7104;SDS011;3594;42.152;24.714;2023-04-24T02:24:46;11.00;;;5.73;;
7104;SDS011;3594;42.152;24.714;2023-04-24T02:27:12;8.67;;;5.73;;
7104;SDS011;3594;42.152;24.714;2023-04-24T02:29:37;9.77;;;5.77;;
7104;SDS011;3594;42.152;24.714;2023-04-24T02:32:03;9.10;;;4.97;;
7104;SDS011;3594;42.152;24.714;2023-04-24T02:34:28;7.27;;;5.07;;
7104;SDS011;3594;42.152;24.714;2023-04-24T02:36:54;10.53;;;6.40;;
7104;SDS011;3594;42.152;24.714;2023-04-24T02:39:19;9.07;;;5.50;;
7104;SDS011;3594;42.152;24.714;2023-04-24T02:41:45;11.70;;;5.03;;
7104;SDS011;3594;42.152;24.714;2023-04-24T02:44:11;10.67;;;5.60;;
7104;SDS011;3594;42.152;24.714;2023-04-24T02:46:36;14.73;;;6.20;;
7104;SDS011;3594;42.152;24.714;2023-04-24T02:49:02;9.57;;;6.07;;
7104;SDS011;3594;42.152;24.714;2023-04-24T02:51:27;10.80;;;6.00;;
7104;SDS011;3594;42.152;24.714;2023-04-24T02:53:53;9.50;;;4.73;;
7104;SDS011;3594;42.152;24.714;2023-04-24T02:56:18;11.00;;;5.43;;
7104;SDS011;3594;42.152;24.714;2023-04-24T02:58:44;8.00;;;5.07;;
7104;SDS011;3594;42.152;24.714;2023-04-24T03:01:10;8.67;;;5.57;;
7104;SDS011;3594;42.152;24.714;2023-04-24T03:03:35;9.37;;;5.47;;
7104;SDS011;3594;42.152;24.714;2023-04-24T03:06:02;15.63;;;6.60;;
7104;SDS011;3594;42.152;24.714;2023-04-24T03:08:27;12.03;;;6.47;;
7104;SDS011;3594;42.152;24.714;2023-04-24T03:10:53;16.17;;;6.33;;
7104;SDS011;3594;42.152;24.714;2023-04-24T03:13:18;9.43;;;5.60;;
7104;SDS011;3594;42.152;24.714;2023-04-24T03:15:44;8.23;;;5.83;;
7104;SDS011;3594;42.152;24.714;2023-04-24T03:18:10;9.23;;;5.90;;
7104;SDS011;3594;42.152;24.714;2023-04-24T03:20:35;11.00;;;6.33;;
7104;SDS011;3594;42.152;24.714;2023-04-24T03:23:02;12.20;;;6.30;;
7104;SDS011;3594;42.152;24.714;2023-04-24T03:25:27;11.27;;;6.53;;
7104;SDS011;3594;42.152;24.714;2023-04-24T03:27:53;11.10;;;6.93;;
7104;SDS011;3594;42.152;24.714;2023-04-24T03:30:19;11.23;;;5.83;;
7104;SDS011;3594;42.152;24.714;2023-04-24T03:32:45;13.47;;;7.07;;
7104;SDS011;3594;42.152;24.714;2023-04-24T03:35:11;11.40;;;6.77;;
7104;SDS011;3594;42.152;24.714;2023-04-24T03:37:36;15.23;;;7.83;;
7104;SDS011;3594;42.152;24.714;2023-04-24T03:40:02;16.47;;;9.07;;
7104;SDS011;3594;42.152;24.714;2023-04-24T03:42:28;11.37;;;7.23;;
7104;SDS011;3594;42.152;24.714;2023-04-24T03:44:53;18.57;;;8.10;;
7104;SDS011;3594;42.152;24.714;2023-04-24T03:47:18;15.33;;;7.77;;
7104;SDS011;3594;42.152;24.714;2023-04-24T03:49:44;11.07;;;7.10;;
7104;SDS011;3594;42.152;24.714;2023-04-24T03:52:09;14.33;;;7.53;;
7104;SDS011;3594;42.152;24.714;2023-04-24T03:54:35;14.40;;;7.80;;
7104;SDS011;3594;42.152;24.714;2023-04-24T03:57:00;13.87;;;7.60;;
7104;SDS011;3594;42.152;24.714;2023-04-24T03:59:28;15.17;;;7.80;;
7104;SDS011;3594;42.152;24.714;2023-04-24T04:01:53;13.75;;;7.55;;
7104;SDS011;3594;42.152;24.714;2023-04-24T04:04:18;18.80;;;8.75;;
7104;SDS011;3594;42.152;24.714;2023-04-24T04:06:44;20.05;;;8.68;;
7104;SDS011;3594;42.152;24.714;2023-04-24T04:09:11;20.65;;;9.07;;
7104;SDS011;3594;42.152;24.714;2023-04-24T04:11:37;16.55;;;7.95;;
7104;SDS011;3594;42.152;24.714;2023-04-24T04:14:02;17.52;;;8.05;;
7104;SDS011;3594;42.152;24.714;2023-04-24T04:16:28;14.35;;;7.20;;
7104;SDS011;3594;42.152;24.714;2023-04-24T04:18:53;14.13;;;7.85;;
7104;SDS011;3594;42.152;24.714;2023-04-24T04:21:19;13.70;;;8.30;;
7104;SDS011;3594;42.152;24.714;2023-04-24T04:23:44;11.77;;;7.13;;
7104;SDS011;3594;42.152;24.714;2023-04-24T04:26:10;14.93;;;6.45;;
7104;SDS011;3594;42.152;24.714;2023-04-24T04:28:37;12.52;;;6.85;;
7104;SDS011;3594;42.152;24.714;2023-04-24T04:31:04;10.70;;;6.38;;
7104;SDS011;3594;42.152;24.714;2023-04-24T04:33:29;11.13;;;6.20;;
7104;SDS011;3594;42.152;24.714;2023-04-24T04:35:56;11.25;;;5.70;;
7104;SDS011;3594;42.152;24.714;2023-04-24T04:38:21;9.93;;;5.80;;
7104;SDS011;3594;42.152;24.714;2023-04-24T04:40:47;10.88;;;6.32;;
7104;SDS011;3594;42.152;24.714;2023-04-24T04:43:13;15.27;;;6.45;;
7104;SDS011;3594;42.152;24.714;2023-04-24T04:45:39;12.45;;;5.75;;
7104;SDS011;3594;42.152;24.714;2023-04-24T04:48:06;11.45;;;6.68;;
7104;SDS011;3594;42.152;24.714;2023-04-24T04:50:32;14.95;;;6.68;;
7104;SDS011;3594;42.152;24.714;2023-04-24T04:52:58;9.38;;;5.75;;
7104;SDS011;3594;42.152;24.714;2023-04-24T04:55:23;12.23;;;5.75;;
7104;SDS011;3594;42.152;24.714;2023-04-24T04:57:49;11.40;;;5.55;;
7104;SDS011;3594;42.152;24.714;2023-04-24T05:00:15;10.50;;;5.70;;
7104;SDS011;3594;42.152;24.714;2023-04-24T05:02:41;9.25;;;5.38;;
7104;SDS011;3594;42.152;24.714;2023-04-24T05:05:06;12.48;;;6.47;;
7104;SDS011;3594;42.152;24.714;2023-04-24T05:07:32;10.20;;;5.70;;
7104;SDS011;3594;42.152;24.714;2023-04-24T05:09:58;13.52;;;6.15;;
7104;SDS011;3594;42.152;24.714;2023-04-24T05:12:23;10.18;;;5.60;;
7104;SDS011;3594;42.152;24.714;2023-04-24T05:14:49;11.45;;;5.95;;
7104;SDS011;3594;42.152;24.714;2023-04-24T05:17:14;11.80;;;5.38;;
7104;SDS011;3594;42.152;24.714;2023-04-24T05:19:40;9.18;;;5.43;;
7104;SDS011;3594;42.152;24.714;2023-04-24T05:22:05;9.20;;;5.63;;
7104;SDS011;3594;42.152;24.714;2023-04-24T05:24:32;7.80;;;5.20;;
7104;SDS011;3594;42.152;24.714;2023-04-24T05:26:59;10.90;;;5.30;;
7104;SDS011;3594;42.152;24.714;2023-04-24T05:29:24;10.57;;;5.70;;
7104;SDS011;3594;42.152;24.714;2023-04-24T05:31:51;9.73;;;5.20;;
7104;SDS011;3594;42.152;24.714;2023-04-24T05:34:17;11.15;;;6.03;;
7104;SDS011;3594;42.152;24.714;2023-04-24T05:36:42;10.90;;;5.80;;
7104;SDS011;3594;42.152;24.714;2023-04-24T05:39:08;10.32;;;5.35;;
7104;SDS011;3594;42.152;24.714;2023-04-24T05:41:34;9.07;;;5.78;;
7104;SDS011;3594;42.152;24.714;2023-04-24T05:43:59;12.57;;;6.07;;
7104;SDS011;3594;42.152;24.714;2023-04-24T05:46:25;11.15;;;5.95;;
7104;SDS011;3594;42.152;24.714;2023-04-24T05:48:50;10.95;;;5.57;;
7104;SDS011;3594;42.152;24.714;2023-04-24T05:51:16;9.88;;;5.13;;
7104;SDS011;3594;42.152;24.714;2023-04-24T05:53:41;11.52;;;5.35;;
7104;SDS011;3594;42.152;24.714;2023-04-24T05:56:06;11.02;;;5.00;;
7104;SDS011;3594;42.152;24.714;2023-04-24T05:58:32;9.63;;;5.32;;
7104;SDS011;3594;42.152;24.714;2023-04-24T06:00:57;7.45;;;4.80;;
7104;SDS011;3594;42.152;24.714;2023-04-24T06:03:23;13.27;;;5.20;;
7104;SDS011;3594;42.152;24.714;2023-04-24T06:05:50;10.18;;;5.28;;
7104;SDS011;3594;42.152;24.714;2023-04-24T06:08:16;7.85;;;4.93;;
7104;SDS011;3594;42.152;24.714;2023-04-24T06:10:41;7.85;;;5.25;;
7104;SDS011;3594;42.152;24.714;2023-04-24T06:13:07;11.38;;;5.75;;
7104;SDS011;3594;42.152;24.714;2023-04-24T06:15:32;10.07;;;5.15;;
7104;SDS011;3594;42.152;24.714;2023-04-24T06:17:58;15.02;;;5.47;;
7104;SDS011;3594;42.152;24.714;2023-04-24T06:20:23;8.77;;;5.28;;
7104;SDS011;3594;42.152;24.714;2023-04-24T06:22:49;9.30;;;5.57;;
7104;SDS011;3594;42.152;24.714;2023-04-24T06:25:14;12.45;;;5.88;;
7104;SDS011;3594;42.152;24.714;2023-04-24T06:27:40;10.88;;;5.60;;
7104;SDS011;3594;42.152;24.714;2023-04-24T06:30:05;9.20;;;5.32;;
7104;SDS011;3594;42.152;24.714;2023-04-24T06:32:32;10.73;;;5.05;;
7104;SDS011;3594;42.152;24.714;2023-04-24T06:34:57;9.35;;;5.60;;
7104;SDS011;3594;42.152;24.714;2023-04-24T06:37:23;10.07;;;5.25;;
7104;SDS011;3594;42.152;24.714;2023-04-24T06:39:48;9.68;;;6.15;;
7104;SDS011;3594;42.152;24.714;2023-04-24T06:42:14;8.52;;;5.30;;
7104;SDS011;3594;42.152;24.714;2023-04-24T06:44:39;9.63;;;5.45;;
7104;SDS011;3594;42.152;24.714;2023-04-24T06:47:08;7.75;;;4.85;;
7104;SDS011;3594;42.152;24.714;2023-04-24T06:49:34;12.95;;;4.75;;
7104;SDS011;3594;42.152;24.714;2023-04-24T06:52:03;7.18;;;4.70;;
7104;SDS011;3594;42.152;24.714;2023-04-24T06:54:29;14.10;;;5.55;;
7104;SDS011;3594;42.152;24.714;2023-04-24T06:56:54;9.35;;;5.43;;
7104;SDS011;3594;42.152;24.714;2023-04-24T06:59:20;9.85;;;5.28;;
7104;SDS011;3594;42.152;24.714;2023-04-24T07:01:46;7.45;;;5.07;;
7104;SDS011;3594;42.152;24.714;2023-04-24T07:04:11;8.30;;;4.95;;
7104;SDS011;3594;42.152;24.714;2023-04-24T07:06:38;12.05;;;5.35;;
7104;SDS011;3594;42.152;24.714;2023-04-24T07:09:04;8.13;;;5.30;;
7104;SDS011;3594;42.152;24.714;2023-04-24T07:11:29;9.80;;;5.15;;
7104;SDS011;3594;42.152;24.714;2023-04-24T07:13:55;8.30;;;5.25;;
7104;SDS011;3594;42.152;24.714;2023-04-24T07:16:20;13.73;;;5.72;;
7104;SDS011;3594;42.152;24.714;2023-04-24T07:18:46;10.90;;;5.63;;
7104;SDS011;3594;42.152;24.714;2023-04-24T07:21:11;14.27;;;5.80;;
7104;SDS011;3594;42.152;24.714;2023-04-24T07:23:36;10.85;;;6.13;;
7104;SDS011;3594;42.152;24.714;2023-04-24T07:26:02;9.30;;;5.30;;
7104;SDS011;3594;42.152;24.714;2023-04-24T07:28:27;8.50;;;5.07;;
7104;SDS011;3594;42.152;24.714;2023-04-24T07:30:56;11.32;;;5.38;;
7104;SDS011;3594;42.152;24.714;2023-04-24T07:33:22;9.02;;;4.97;;
7104;SDS011;3594;42.152;24.714;2023-04-24T07:35:47;7.55;;;4.63;;
7104;SDS011;3594;42.152;24.714;2023-04-24T07:38:13;10.63;;;4.47;;
7104;SDS011;3594;42.152;24.714;2023-04-24T07:40:39;11.00;;;5.10;;
7104;SDS011;3594;42.152;24.714;2023-04-24T07:43:04;8.85;;;4.78;;
7104;SDS011;3594;42.152;24.714;2023-04-24T07:45:29;8.00;;;5.07;;
7104;SDS011;3594;42.152;24.714;2023-04-24T07:47:56;7.72;;;5.15;;
7104;SDS011;3594;42.152;24.714;2023-04-24T07:50:22;8.35;;;4.97;;
7104;SDS011;3594;42.152;24.714;2023-04-24T07:52:47;8.70;;;4.78;;
7104;SDS011;3594;42.152;24.714;2023-04-24T07:55:13;8.25;;;4.88;;
7104;SDS011;3594;42.152;24.714;2023-04-24T07:57:38;7.35;;;4.30;;
7104;SDS011;3594;42.152;24.714;2023-04-24T08:00:04;6.72;;;4.47;;
7104;SDS011;3594;42.152;24.714;2023-04-24T08:02:30;5.63;;;4.20;;
7104;SDS011;3594;42.152;24.714;2023-04-24T08:04:56;8.05;;;3.97;;
7104;SDS011;3594;42.152;24.714;2023-04-24T08:07:21;10.07;;;4.40;;
7104;SDS011;3594;42.152;24.714;2023-04-24T08:09:48;9.23;;;4.72;;
7104;SDS011;3594;42.152;24.714;2023-04-24T08:12:13;7.60;;;4.68;;
7104;SDS011;3594;42.152;24.714;2023-04-24T08:14:39;7.05;;;4.28;;
7104;SDS011;3594;42.152;24.714;2023-04-24T08:17:05;7.22;;;4.65;;
7104;SDS011;3594;42.152;24.714;2023-04-24T08:19:30;6.70;;;4.40;;
7104;SDS011;3594;42.152;24.714;2023-04-24T08:21:55;5.95;;;3.95;;
7104;SDS011;3594;42.152;24.714;2023-04-24T08:24:21;9.07;;;4.70;;
7104;SDS011;3594;42.152;24.714;2023-04-24T08:26:47;7.43;;;4.68;;
7104;SDS011;3594;42.152;24.714;2023-04-24T08:29:16;9.60;;;4.68;;
7104;SDS011;3594;42.152;24.714;2023-04-24T08:31:42;11.98;;;4.55;;
7104;SDS011;3594;42.152;24.714;2023-04-24T08:34:07;7.70;;;4.75;;
7104;SDS011;3594;42.152;24.714;2023-04-24T08:36:34;7.93;;;4.35;;
7104;SDS011;3594;42.152;24.714;2023-04-24T08:39:00;8.23;;;4.75;;
7104;SDS011;3594;42.152;24.714;2023-04-24T08:41:25;7.65;;;4.78;;
7104;SDS011;3594;42.152;24.714;2023-04-24T08:43:52;8.45;;;4.70;;
7104;SDS011;3594;42.152;24.714;2023-04-24T08:46:18;6.28;;;3.92;;
7104;SDS011;3594;42.152;24.714;2023-04-24T08:48:45;6.55;;;4.43;;
7104;SDS011;3594;42.152;24.714;2023-04-24T08:51:11;9.30;;;4.93;;
7104;SDS011;3594;42.152;24.714;2023-04-24T08:53:37;9.73;;;4.30;;
7104;SDS011;3594;42.152;24.714;2023-04-24T08:56:03;8.02;;;4.43;;
7104;SDS011;3594;42.152;24.714;2023-04-24T08:58:29;8.55;;;4.45;;
7104;SDS011;3594;42.152;24.714;2023-04-24T09:00:55;7.82;;;4.45;;
7104;SDS011;3594;42.152;24.714;2023-04-24T09:03:21;7.75;;;4.68;;
7104;SDS011;3594;42.152;24.714;2023-04-24T09:05:48;8.93;;;4.78;;
7104;SDS011;3594;42.152;24.714;2023-04-24T09:08:16;8.45;;;4.80;;
7104;SDS011;3594;42.152;24.714;2023-04-24T09:10:43;10.70;;;5.38;;
7104;SDS011;3594;42.152;24.714;2023-04-24T09:13:09;6.75;;;4.53;;
7104;SDS011;3594;42.152;24.714;2023-04-24T09:15:35;6.65;;;4.63;;
7104;SDS011;3594;42.152;24.714;2023-04-24T09:18:01;7.35;;;4.47;;
7104;SDS011;3594;42.152;24.714;2023-04-24T09:20:27;9.73;;;5.10;;
7104;SDS011;3594;42.152;24.714;2023-04-24T09:22:53;8.30;;;5.05;;
7104;SDS011;3594;42.152;24.714;2023-04-24T09:25:20;10.60;;;4.97;;
7104;SDS011;3594;42.152;24.714;2023-04-24T09:27:46;8.70;;;4.65;;
7104;SDS011;3594;42.152;24.714;2023-04-24T09:30:12;7.03;;;4.45;;
7104;SDS011;3594;42.152;24.714;2023-04-24T09:32:38;8.00;;;4.65;;
7104;SDS011;3594;42.152;24.714;2023-04-24T09:35:11;6.90;;;4.30;;
7104;SDS011;3594;42.152;24.714;2023-04-24T09:37:39;7.78;;;4.70;;
7104;SDS011;3594;42.152;24.714;2023-04-24T09:40:20;7.68;;;4.63;;
7104;SDS011;3594;42.152;24.714;2023-04-24T09:42:54;7.22;;;4.57;;
7104;SDS011;3594;42.152;24.714;2023-04-24T09:45:21;8.80;;;4.75;;
7104;SDS011;3594;42.152;24.714;2023-04-24T09:47:52;8.05;;;4.60;;
7104;SDS011;3594;42.152;24.714;2023-04-24T09:50:21;10.18;;;5.10;;
7104;SDS011;3594;42.152;24.714;2023-04-24T09:52:47;9.38;;;5.47;;
7104;SDS011;3594;42.152;24.714;2023-04-24T09:55:21;6.72;;;4.72;;
7104;SDS011;3594;42.152;24.714;2023-04-24T09:57:47;6.70;;;4.47;;
7104;SDS011;3594;42.152;24.714;2023-04-24T10:00:17;9.20;;;5.13;;
7104;SDS011;3594;42.152;24.714;2023-04-24T10:02:43;7.95;;;4.78;;
7104;SDS011;3594;42.152;24.714;2023-04-24T10:05:10;8.27;;;4.93;;
7104;SDS011;3594;42.152;24.714;2023-04-24T10:07:37;9.02;;;4.78;;
7104;SDS011;3594;42.152;24.714;2023-04-24T10:10:03;8.70;;;5.18;;
7104;SDS011;3594;42.152;24.714;2023-04-24T10:12:29;8.13;;;4.95;;
7104;SDS011;3594;42.152;24.714;2023-04-24T10:14:55;9.60;;;5.40;;
7104;SDS011;3594;42.152;24.714;2023-04-24T10:17:22;9.95;;;5.40;;
7104;SDS011;3594;42.152;24.714;2023-04-24T10:19:50;11.27;;;5.25;;
7104;SDS011;3594;42.152;24.714;2023-04-24T10:22:16;10.27;;;5.32;;
7104;SDS011;3594;42.152;24.714;2023-04-24T10:24:43;8.15;;;5.28;;
7104;SDS011;3594;42.152;24.714;2023-04-24T10:27:10;9.13;;;5.45;;
7104;SDS011;3594;42.152;24.714;2023-04-24T10:29:37;7.28;;;4.68;;
7104;SDS011;3594;42.152;24.714;2023-04-24T10:32:06;10.02;;;5.60;;
7104;SDS011;3594;42.152;24.714;2023-04-24T10:34:32;10.02;;;5.18;;
7104;SDS011;3594;42.152;24.714;2023-04-24T10:36:57;8.95;;;5.15;;
7104;SDS011;3594;42.152;24.714;2023-04-24T10:39:23;8.98;;;5.30;;
7104;SDS011;3594;42.152;24.714;2023-04-24T10:41:49;8.15;;;5.13;;
7104;SDS011;3594;42.152;24.714;2023-04-24T10:44:15;8.40;;;5.03;;
7104;SDS011;3594;42.152;24.714;2023-04-24T10:46:46;7.10;;;4.43;;
7104;SDS011;3594;42.152;24.714;2023-04-24T10:49:18;7.32;;;5.07;;
7104;SDS011;3594;42.152;24.714;2023-04-24T10:51:53;7.40;;;5.05;;
7104;SDS011;3594;42.152;24.714;2023-04-24T10:54:29;8.00;;;5.20;;
7104;SDS011;3594;42.152;24.714;2023-04-24T10:59:44;8.73;;;4.90;;
7104;SDS011;3594;42.152;24.714;2023-04-24T11:02:10;8.70;;;5.13;;
7104;SDS011;3594;42.152;24.714;2023-04-24T11:04:35;9.13;;;4.40;;
7104;SDS011;3594;42.152;24.714;2023-04-24T11:07:02;7.07;;;4.43;;
7104;SDS011;3594;42.152;24.714;2023-04-24T11:09:30;8.10;;;4.60;;
7104;SDS011;3594;42.152;24.714;2023-04-24T11:12:06;7.15;;;4.18;;
7104;SDS011;3594;42.152;24.714;2023-04-24T11:17:37;8.07;;;4.63;;
7104;SDS011;3594;42.152;24.714;2023-04-24T11:20:08;7.53;;;4.50;;
7104;SDS011;3594;42.152;24.714;2023-04-24T11:22:41;6.85;;;4.10;;
7104;SDS011;3594;42.152;24.714;2023-04-24T11:25:07;6.55;;;4.65;;
7104;SDS011;3594;42.152;24.714;2023-04-24T11:27:43;7.32;;;4.47;;
7104;SDS011;3594;42.152;24.714;2023-04-24T11:30:10;6.70;;;4.05;;
7104;SDS011;3594;42.152;24.714;2023-04-24T11:32:37;5.90;;;4.55;;
7104;SDS011;3594;42.152;24.714;2023-04-24T11:35:14;6.35;;;4.22;;
7104;SDS011;3594;42.152;24.714;2023-04-24T11:37:41;5.20;;;3.97;;
7104;SDS011;3594;42.152;24.714;2023-04-24T11:40:09;6.22;;;4.07;;
7104;SDS011;3594;42.152;24.714;2023-04-24T11:42:39;8.48;;;4.15;;
7104;SDS011;3594;42.152;24.714;2023-04-24T11:45:13;7.18;;;4.20;;
7104;SDS011;3594;42.152;24.714;2023-04-24T11:47:41;6.97;;;3.85;;
7104;SDS011;3594;42.152;24.714;2023-04-24T11:50:08;7.35;;;4.45;;
7104;SDS011;3594;42.152;24.714;2023-04-24T11:53:09;6.25;;;4.25;;
7104;SDS011;3594;42.152;24.714;2023-04-24T11:55:29;5.55;;;3.60;;
7104;SDS011;3594;42.152;24.714;2023-04-24T11:57:56;7.05;;;4.20;;
7104;SDS011;3594;42.152;24.714;2023-04-24T12:00:27;6.75;;;3.97;;
7104;SDS011;3594;42.152;24.714;2023-04-24T12:03:04;6.03;;;3.80;;
7104;SDS011;3594;42.152;24.714;2023-04-24T12:05:31;9.27;;;3.85;;
7104;SDS011;3594;42.152;24.714;2023-04-24T12:07:56;5.82;;;3.75;;
7104;SDS011;3594;42.152;24.714;2023-04-24T12:10:23;9.02;;;4.30;;
7104;SDS011;3594;42.152;24.714;2023-04-24T12:12:51;6.45;;;4.03;;
7104;SDS011;3594;42.152;24.714;2023-04-24T12:15:18;8.07;;;4.20;;
7104;SDS011;3594;42.152;24.714;2023-04-24T12:17:44;7.20;;;4.13;;
7104;SDS011;3594;42.152;24.714;2023-04-24T12:20:10;7.10;;;4.00;;
7104;SDS011;3594;42.152;24.714;2023-04-24T12:25:27;7.10;;;4.15;;
7104;SDS011;3594;42.152;24.714;2023-04-24T12:28:14;6.80;;;3.90;;
7104;SDS011;3594;42.152;24.714;2023-04-24T12:30:40;7.35;;;3.95;;
7104;SDS011;3594;42.152;24.714;2023-04-24T12:33:09;4.93;;;3.58;;
7104;SDS011;3594;42.152;24.714;2023-04-24T12:35:34;5.82;;;3.78;;
7104;SDS011;3594;42.152;24.714;2023-04-24T12:38:11;5.40;;;3.65;;
7104;SDS011;3594;42.152;24.714;2023-04-24T12:40:38;6.28;;;4.03;;
7104;SDS011;3594;42.152;24.714;2023-04-24T12:43:17;8.45;;;4.25;;
7104;SDS011;3594;42.152;24.714;2023-04-24T12:45:44;6.68;;;3.92;;
7104;SDS011;3594;42.152;24.714;2023-04-24T12:48:10;5.70;;;3.88;;
7104;SDS011;3594;42.152;24.714;2023-04-24T12:50:36;5.85;;;3.70;;
7104;SDS011;3594;42.152;24.714;2023-04-24T12:53:02;5.35;;;3.75;;
7104;SDS011;3594;42.152;24.714;2023-04-24T12:55:28;5.68;;;3.75;;
7104;SDS011;3594;42.152;24.714;2023-04-24T12:57:53;4.97;;;3.65;;
7104;SDS011;3594;42.152;24.714;2023-04-24T13:00:20;5.43;;;3.90;;
7104;SDS011;3594;42.152;24.714;2023-04-24T13:02:45;6.20;;;3.80;;
7104;SDS011;3594;42.152;24.714;2023-04-24T13:05:11;6.03;;;4.00;;
7104;SDS011;3594;42.152;24.714;2023-04-24T13:07:38;4.60;;;3.38;;
7104;SDS011;3594;42.152;24.714;2023-04-24T13:10:05;4.82;;;3.38;;
7104;SDS011;3594;42.152;24.714;2023-04-24T13:12:30;5.40;;;3.60;;
7104;SDS011;3594;42.152;24.714;2023-04-24T13:14:57;5.82;;;3.65;;
7104;SDS011;3594;42.152;24.714;2023-04-24T13:17:22;5.75;;;4.03;;
7104;SDS011;3594;42.152;24.714;2023-04-24T13:19:49;6.65;;;3.88;;
7104;SDS011;3594;42.152;24.714;2023-04-24T13:22:15;8.45;;;4.00;;
7104;SDS011;3594;42.152;24.714;2023-04-24T13:24:43;6.68;;;3.72;;
7104;SDS011;3594;42.152;24.714;2023-04-24T13:27:09;4.18;;;2.85;;
7104;SDS011;3594;42.152;24.714;2023-04-24T13:29:35;5.40;;;3.50;;
7104;SDS011;3594;42.152;24.714;2023-04-24T13:32:01;4.82;;;3.70;;
7104;SDS011;3594;42.152;24.714;2023-04-24T13:34:26;5.97;;;3.65;;
7104;SDS011;3594;42.152;24.714;2023-04-24T13:36:52;5.85;;;3.67;;
7104;SDS011;3594;42.152;24.714;2023-04-24T13:39:18;4.43;;;3.28;;
7104;SDS011;3594;42.152;24.714;2023-04-24T13:41:44;6.97;;;3.88;;
7104;SDS011;3594;42.152;24.714;2023-04-24T13:44:12;7.38;;;3.58;;
7104;SDS011;3594;42.152;24.714;2023-04-24T13:46:37;6.22;;;3.70;;
7104;SDS011;3594;42.152;24.714;2023-04-24T13:49:03;6.25;;;3.75;;
7104;SDS011;3594;42.152;24.714;2023-04-24T13:51:28;5.95;;;3.83;;
7104;SDS011;3594;42.152;24.714;2023-04-24T13:53:54;4.93;;;3.40;;
7104;SDS011;3594;42.152;24.714;2023-04-24T13:56:20;5.30;;;3.55;;
7104;SDS011;3594;42.152;24.714;2023-04-24T13:58:46;4.32;;;3.20;;
7104;SDS011;3594;42.152;24.714;2023-04-24T14:01:12;5.28;;;3.80;;
7104;SDS011;3594;42.152;24.714;2023-04-24T14:03:38;9.35;;;3.20;;
7104;SDS011;3594;42.152;24.714;2023-04-24T14:06:03;6.00;;;3.78;;
7104;SDS011;3594;42.152;24.714;2023-04-24T14:08:29;5.40;;;3.38;;
7104;SDS011;3594;42.152;24.714;2023-04-24T14:10:54;5.40;;;3.55;;
7104;SDS011;3594;42.152;24.714;2023-04-24T14:13:20;5.15;;;3.30;;
7104;SDS011;3594;42.152;24.714;2023-04-24T14:15:45;5.43;;;3.72;;
7104;SDS011;3594;42.152;24.714;2023-04-24T14:18:11;5.55;;;3.47;;
7104;SDS011;3594;42.152;24.714;2023-04-24T14:20:37;4.97;;;3.65;;
7104;SDS011;3594;42.152;24.714;2023-04-24T14:23:02;4.78;;;3.55;;
7104;SDS011;3594;42.152;24.714;2023-04-24T14:25:29;5.55;;;3.53;;
7104;SDS011;3594;42.152;24.714;2023-04-24T14:27:55;4.80;;;3.60;;
7104;SDS011;3594;42.152;24.714;2023-04-24T14:30:20;5.72;;;3.40;;
7104;SDS011;3594;42.152;24.714;2023-04-24T14:32:46;4.65;;;3.53;;
7104;SDS011;3594;42.152;24.714;2023-04-24T14:35:12;6.43;;;4.00;;
7104;SDS011;3594;42.152;24.714;2023-04-24T14:37:37;5.97;;;3.40;;
7104;SDS011;3594;42.152;24.714;2023-04-24T14:40:06;7.22;;;3.80;;
7104;SDS011;3594;42.152;24.714;2023-04-24T14:42:33;5.10;;;3.35;;
7104;SDS011;3594;42.152;24.714;2023-04-24T14:44:58;4.63;;;3.15;;
7104;SDS011;3594;42.152;24.714;2023-04-24T14:47:24;4.85;;;3.55;;
7104;SDS011;3594;42.152;24.714;2023-04-24T14:49:50;5.00;;;3.53;;
7104;SDS011;3594;42.152;24.714;2023-04-24T14:52:15;5.55;;;3.55;;
7104;SDS011;3594;42.152;24.714;2023-04-24T14:54:41;5.45;;;3.67;;
7104;SDS011;3594;42.152;24.714;2023-04-24T14:57:07;7.35;;;3.20;;
7104;SDS011;3594;42.152;24.714;2023-04-24T14:59:32;4.05;;;3.13;;
7104;SDS011;3594;42.152;24.714;2023-04-24T15:01:58;8.70;;;3.70;;